Detall de PIREP

Printer-friendly versionPDF version

[2012/06/09 14:30:00]
Flight IATA:CT0001
Pilot Number:044
Company ICAO:CAT
Aircraft Type:BE58/A
PAX:2
Departing Airport: LEVC
Destination Airport: LEIB
Alternate Airport:LEPA
Online: VATSIM
Route:NINOT
Flight Level:FL080
No Slew and time accel
No pause
Crash detect
Detect pilot in Cockpit between each 30 and 45 minutes
14:30 Zero fuel Weight: 4592 Lbs, Fuel Weight: 848 Lbs
14:30 VATSIM:LEVC 091400Z 13012KT 9999 FEW020 26/18 Q1016 NOSIG
14:30 VATSIM:LEIB 091400Z 11008KT 070V160 9999 FEW035 25/19 Q1017 NOSIG
14:31 VOICE CATALONIAN
14:32 Parking Brakes off
14:41 Take-off
14:41 Take off Weight: 5436 Lbs
14:41 Wind: 133º @ 012 Knots Heading: 115º
14:41 POS N39º 29´ 30´´ W000º 29´ 19´´
14:41 Gear Up: 129 Knots
14:51 TOC
14:51 Fuel Weight: 812 Lb
14:56 Wind:121º@023 Knots Heading: 100º Ground Speed: 127 Knots Altitude 8097 ft
15:05 TOD
15:05 Fuel Weight: 775 Lb
15:05 TOC
15:05 Fuel Weight: 774 Lb
15:05 TOD
15:05 Fuel Weight: 773 Lb
15:11 Wind:109º@015 Knots Heading: 114º Ground Speed: 148 Knots Altitude 6115 ft
15:26 Wind:110º@012 Knots Heading: 062º Ground Speed: 126 Knots Altitude 2732 ft
15:27 Flaps:1 at 125 Knots
15:30 Gear Down: 122 Knots
15:30 Flaps:2 at 97 Knots
15:31 TouchDown:Rate -66 ft/min Speed: 74 Knots
15:32 VATSIM:LEIB 091500Z 11008KT 060V140 9999 FEW030 24/19 Q1017 NOSIG
15:32 Land
15:32 Wind:102º@008 Knots
15:32 Heading: 061º
15:32 Flight Duration: 00:51
15:32 Landing Weight: 5314 Lbs
15:32 POS N38º 52´ 21´´ E001º 22´ 21´´
15:37 Parking brakes on
15:37 Block to Block Duration: 01:05
15:37 Final Fuel: 720 Lbls
15:37 Spent Fuel: 127 Lbls
15:37 Flight Length: 107 NM
15:37 TOD Land Length: 58 NM
[2012/06/09 14:30:00]
Flight IATA:CT0001
Pilot Number:044
Company ICAO:CAT
Aircraft Type:BE58/A
PAX:2
Departing Airport: LEVC
Destination Airport: LEIB
Alternate Airport:LEPA
Online: VATSIM
Route:NINOT
Flight Level:FL080
No Slew and time accel
No pause
Crash detect
Detect pilot in Cockpit between each 30 and 45 minutes
[2012/06/09 14:30:00]
Flight IATA:CT0001
Pilot Number:044
Company ICAO:CAT
Aircraft Type:BE58/A
PAX:2
Departing Airport: LEVC
Destination Airport: LEIB
Alternate Airport:LEPA
Online: VATSIM
Route:NINOT
Flight Level:FL080
No Slew and time accel
No pause
Crash detect
Detect pilot in Cockpit between each 30 and 45 minutes
14:30 Zero fuel Weight: 4592 Lbs, Fuel Weight: 848 Lbs
14:30 VATSIM:LEVC 091400Z 13012KT 9999 FEW020 26/18 Q1016 NOSIG
14:30 VATSIM:LEIB 091400Z 11008KT 070V160 9999 FEW035 25/19 Q1017 NOSIG
14:31 VOICE CATALONIAN
14:32 Parking Brakes off
14:41 Take-off
14:41 Take off Weight: 5436 Lbs
14:41 Wind: 133º @ 012 Knots Heading: 115º
14:41 POS N39º 29´ 30´´ W000º 29´ 19´´
14:41 Gear Up: 129 Knots
14:51 TOC
14:51 Fuel Weight: 812 Lb
14:56 Wind:121º@023 Knots Heading: 100º Ground Speed: 127 Knots Altitude 8097 ft
15:05 TOD
15:05 Fuel Weight: 775 Lb
15:05 TOC
15:05 Fuel Weight: 774 Lb
15:05 TOD
15:05 Fuel Weight: 773 Lb
15:11 Wind:109º@015 Knots Heading: 114º Ground Speed: 148 Knots Altitude 6115 ft
15:26 Wind:110º@012 Knots Heading: 062º Ground Speed: 126 Knots Altitude 2732 ft
15:27 Flaps:1 at 125 Knots
15:30 Gear Down: 122 Knots
15:30 Flaps:2 at 97 Knots
15:31 TouchDown:Rate -66 ft/min Speed: 74 Knots
15:32 VATSIM:LEIB 091500Z 11008KT 060V140 9999 FEW030 24/19 Q1017 NOSIG
15:32 Land
15:32 Wind:102º@008 Knots
15:32 Heading: 061º
15:32 Flight Duration: 00:51
15:32 Landing Weight: 5314 Lbs
15:32 POS N38º 52´ 21´´ E001º 22´ 21´´
15:37 Parking brakes on
15:37 Block to Block Duration: 01:05
15:37 Final Fuel: 720 Lbls
15:37 Spent Fuel: 127 Lbls
15:37 Flight Length: 107 NM
15:37 TOD Land Length: 58 NM

Exportar CSV

Powered by Drupal - Modified by Danger4k